createdAt,value
2017-09-04T00:00:18.654Z,48.5
2017-09-04T00:01:20.449Z,48.6
2017-09-04T00:02:22.246Z,49
2017-09-04T00:03:24.021Z,48.7
2017-09-04T00:04:25.811Z,48.7
2017-09-04T00:05:27.941Z,48.6
2017-09-04T00:06:29.046Z,48.5
2017-09-04T00:07:30.842Z,49
2017-09-04T00:08:32.972Z,48.6
2017-09-04T00:09:34.075Z,48.7
2017-09-04T00:10:35.537Z,48.9
2017-09-04T00:11:37.661Z,48.6
2017-09-04T00:12:39.099Z,48.9
2017-09-04T00:13:40.894Z,48.5
2017-09-04T00:14:42.691Z,48.7
2017-09-04T00:15:44.822Z,48.7
2017-09-04T00:16:46.952Z,48.4
2017-09-04T00:17:48.749Z,48.7
2017-09-04T00:18:50.878Z,48.6
2017-09-04T00:19:53.007Z,48.6
2017-09-04T00:20:55.136Z,48.7
2017-09-04T00:21:56.936Z,48.4
2017-09-04T00:22:59.063Z,48.8
2017-09-04T00:24:00.522Z,48.5
2017-09-04T00:25:02.657Z,48.8
2017-09-04T00:26:03.422Z,48.5
2017-09-04T00:27:05.220Z,48.9
2017-09-04T00:28:07.013Z,48.9
2017-09-04T00:29:08.789Z,48.5
2017-09-04T00:30:09.895Z,48.6
2017-09-04T00:31:12.023Z,48.5
2017-09-04T00:32:13.815Z,48.6
2017-09-04T00:33:15.945Z,48.8
2017-09-04T00:34:17.404Z,48.6
2017-09-04T00:35:19.529Z,48.8
2017-09-04T00:36:21.324Z,48.6
2017-09-04T00:37:23.481Z,48.6
2017-09-04T00:38:25.296Z,48.6
2017-09-04T00:39:27.104Z,48.8
2017-09-04T00:40:28.899Z,48.9
2017-09-04T00:41:30.359Z,48.9
2017-09-04T00:42:32.488Z,48.6
2017-09-04T00:43:33.926Z,48.6
2017-09-04T00:44:36.053Z,48.9
2017-09-04T00:45:38.182Z,48.6
2017-09-04T00:46:40.316Z,48.6
2017-09-04T00:47:42.109Z,48.7
2017-09-04T00:48:44.237Z,48.6
2017-09-04T00:49:45.374Z,48.8
2017-09-04T00:50:46.810Z,48.6
2017-09-04T00:51:47.578Z,48.6
2017-09-04T00:52:48.681Z,48.9
2017-09-04T00:53:50.473Z,48.6
2017-09-04T00:54:52.614Z,48.9
2017-09-04T00:55:53.720Z,48.9
2017-09-04T00:56:55.513Z,48.7
2017-09-04T00:57:57.321Z,48.8
2017-09-04T00:58:58.759Z,48.5
2017-09-04T01:00:00.530Z,48.7
2017-09-04T01:01:02.660Z,48.7
2017-09-04T01:02:04.789Z,48.5
2017-09-04T01:03:05.597Z,48.6
2017-09-04T01:04:07.388Z,48.7
2017-09-04T01:05:08.826Z,48.6
2017-09-04T01:06:10.955Z,48.8
2017-09-04T01:07:12.749Z,48.5
2017-09-04T01:08:14.558Z,48.6
2017-09-04T01:09:15.978Z,48.8
2017-09-04T01:10:18.110Z,48.6
2017-09-04T01:11:19.903Z,48.6
2017-09-04T01:12:21.364Z,48.7
2017-09-04T01:13:23.494Z,48.5
2017-09-04T01:14:25.267Z,48.8
2017-09-04T01:15:26.707Z,48.5
2017-09-04T01:16:27.833Z,48.7
2017-09-04T01:17:29.605Z,48.4
2017-09-04T01:18:31.396Z,48.8
2017-09-04T01:19:33.171Z,48.8
2017-09-04T01:20:34.944Z,48.8
2017-09-04T01:21:37.071Z,48.6
2017-09-04T01:22:39.199Z,48.6
2017-09-04T01:23:40.660Z,48.9
2017-09-04T01:24:42.789Z,49
2017-09-04T01:25:44.227Z,48.9
2017-09-04T01:26:46.359Z,48.5
2017-09-04T01:27:48.151Z,48.8
2017-09-04T01:28:49.587Z,48.6
2017-09-04T01:29:51.381Z,48.7
2017-09-04T01:30:53.506Z,48.9
2017-09-04T01:31:54.629Z,48.6
2017-09-04T01:32:56.062Z,48.7
2017-09-04T01:33:58.192Z,48.7
2017-09-04T01:35:00.320Z,48.8
2017-09-04T01:36:02.450Z,48.9
2017-09-04T01:37:03.555Z,49
2017-09-04T01:38:05.350Z,48.6
2017-09-04T01:39:07.480Z,48.4
2017-09-04T01:40:09.607Z,48.7
2017-09-04T01:41:11.400Z,49
2017-09-04T01:42:13.174Z,48.9
2017-09-04T01:43:14.992Z,48.8
2017-09-04T01:44:16.430Z,48.6
2017-09-04T01:45:18.202Z,48.7
2017-09-04T01:46:20.331Z,49.4
2017-09-04T01:47:21.789Z,48.5
2017-09-04T01:48:23.561Z,48.5
2017-09-04T01:49:25.686Z,48.5
2017-09-04T01:50:27.492Z,48.7
2017-09-04T01:51:28.954Z,49
2017-09-04T01:52:30.751Z,48.8
2017-09-04T01:53:32.881Z,49.4
2017-09-04T01:54:34.342Z,48.7
2017-09-04T01:55:36.116Z,48.8
2017-09-04T01:56:37.223Z,48.8
2017-09-04T01:57:39.369Z,49
2017-09-04T01:58:41.161Z,49
2017-09-04T01:59:42.599Z,49
2017-09-04T02:00:44.735Z,48.8
2017-09-04T02:01:46.864Z,48.5
2017-09-04T02:02:48.301Z,48.7
2017-09-04T02:03:50.096Z,48.7
2017-09-04T02:04:51.868Z,48.9
2017-09-04T02:05:53.326Z,49
2017-09-04T02:06:55.122Z,49
2017-09-04T02:07:57.253Z,48.9
2017-09-04T02:08:59.385Z,49
2017-09-04T02:10:01.545Z,48.8
2017-09-04T02:11:03.313Z,48.9
2017-09-04T02:12:04.749Z,48.5
2017-09-04T02:13:06.190Z,48.7
2017-09-04T02:14:07.984Z,48.9
2017-09-04T02:15:10.112Z,48.7
2017-09-04T02:16:11.908Z,49
2017-09-04T02:17:13.370Z,49.1
2017-09-04T02:18:15.505Z,48.9
2017-09-04T02:19:16.964Z,49
2017-09-04T02:20:19.104Z,49
2017-09-04T02:21:21.232Z,48.6
2017-09-04T02:22:23.359Z,49
2017-09-04T02:23:25.171Z,48.8
2017-09-04T02:24:27.299Z,48.7
2017-09-04T02:25:29.429Z,48.7
2017-09-04T02:26:30.532Z,48.9
2017-09-04T02:27:32.330Z,48.8
2017-09-04T02:28:33.774Z,48.9
2017-09-04T02:29:35.234Z,49
2017-09-04T02:30:37.036Z,48.7
2017-09-04T02:31:38.822Z,48.7
2017-09-04T02:32:40.593Z,48.5
2017-09-04T02:33:42.722Z,48.9
2017-09-04T02:34:44.159Z,48.7
2017-09-04T02:35:45.619Z,49
2017-09-04T02:36:47.416Z,49
2017-09-04T02:37:49.191Z,49
2017-09-04T02:38:51.007Z,48.8
2017-09-04T02:39:52.801Z,49
2017-09-04T02:40:54.597Z,49
2017-09-04T02:41:56.060Z,48.9
2017-09-04T02:42:57.520Z,49
2017-09-04T02:43:58.625Z,48.8
2017-09-04T02:45:00.060Z,48.9
2017-09-04T02:46:01.836Z,49
2017-09-04T02:47:03.273Z,49
2017-09-04T02:48:05.046Z,48.8
2017-09-04T02:49:06.840Z,48.9
2017-09-04T02:50:08.630Z,48.6
2017-09-04T02:51:10.758Z,48.9
2017-09-04T02:52:12.196Z,48.8
2017-09-04T02:53:13.972Z,49
2017-09-04T02:54:16.106Z,48.8
2017-09-04T02:55:17.564Z,49
2017-09-04T02:56:19.704Z,49
2017-09-04T02:57:21.836Z,49
2017-09-04T02:58:23.629Z,49
2017-09-04T02:59:25.757Z,49
2017-09-04T03:00:27.885Z,49
2017-09-04T03:01:29.326Z,49
2017-09-04T03:02:31.493Z,48.9
2017-09-04T03:03:33.273Z,48.9
2017-09-04T03:04:34.375Z,48.9
2017-09-04T03:05:35.478Z,48.8
2017-09-04T03:06:37.609Z,48.8
2017-09-04T03:07:39.737Z,49
2017-09-04T03:08:41.532Z,48.8
2017-09-04T03:09:43.658Z,48.9
2017-09-04T03:10:45.452Z,48.9
2017-09-04T03:11:47.248Z,49
2017-09-04T03:12:48.361Z,49
2017-09-04T03:13:49.799Z,48.8
2017-09-04T03:14:51.928Z,48.8
2017-09-04T03:15:54.056Z,48.9
2017-09-04T03:16:55.493Z,48.8
2017-09-04T03:17:57.623Z,49
2017-09-04T03:18:59.751Z,48.8
2017-09-04T03:20:01.882Z,48.8
2017-09-04T03:21:03.321Z,49.1
2017-09-04T03:22:05.447Z,48.8
2017-09-04T03:23:07.245Z,48.9
2017-09-04T03:24:09.370Z,49.1
2017-09-04T03:25:11.502Z,48.8
2017-09-04T03:26:13.295Z,48.9
2017-09-04T03:27:14.753Z,49
2017-09-04T03:28:16.214Z,49.1
2017-09-04T03:29:17.987Z,49.1
2017-09-04T03:30:19.426Z,48.8
2017-09-04T03:31:20.871Z,48.8
2017-09-04T03:32:22.328Z,49
2017-09-04T03:33:24.125Z,49.1
2017-09-04T03:34:25.917Z,48.8
2017-09-04T03:35:28.046Z,48.9
2017-09-04T03:36:29.840Z,49
2017-09-04T03:37:31.309Z,49
2017-09-04T03:38:33.435Z,48.8
2017-09-04T03:39:35.206Z,48.8
2017-09-04T03:40:36.643Z,48.8
2017-09-04T03:41:38.773Z,49
2017-09-04T03:42:40.547Z,49
2017-09-04T03:43:42.023Z,48.9
2017-09-04T03:44:43.462Z,48.7
2017-09-04T03:45:45.254Z,48.8
2017-09-04T03:46:46.713Z,49
2017-09-04T03:47:48.149Z,48.9
2017-09-04T03:48:49.275Z,48.8
2017-09-04T03:49:51.071Z,49
2017-09-04T03:50:52.866Z,48.8
2017-09-04T03:51:54.661Z,49
2017-09-04T03:52:56.098Z,48.9
2017-09-04T03:53:57.561Z,49
2017-09-04T03:54:58.666Z,48.9
2017-09-04T03:56:00.795Z,48.9
2017-09-04T03:57:02.254Z,49.2
2017-09-04T03:58:04.383Z,49
2017-09-04T03:59:06.512Z,48.9
2017-09-04T04:00:08.312Z,49
2017-09-04T04:01:10.107Z,48.9
2017-09-04T04:02:11.226Z,48.8
2017-09-04T04:03:12.684Z,48.8
2017-09-04T04:04:14.144Z,48.9
2017-09-04T04:05:15.603Z,48.9
2017-09-04T04:06:17.735Z,49.2
2017-09-04T04:07:18.837Z,49
2017-09-04T04:08:20.608Z,48.9
2017-09-04T04:09:21.751Z,48.8
2017-09-04T04:10:23.543Z,48.9
2017-09-04T04:11:25.338Z,48.9
2017-09-04T04:12:27.132Z,49.1
2017-09-04T04:13:28.905Z,49.2
2017-09-04T04:14:31.032Z,49
2017-09-04T04:15:33.159Z,49.1
2017-09-04T04:16:34.260Z,49
2017-09-04T04:17:36.056Z,49.1
2017-09-04T04:18:37.200Z,48.8
2017-09-04T04:19:39.330Z,49.2
2017-09-04T04:20:41.107Z,48.9
2017-09-04T04:21:42.546Z,48.8
2017-09-04T04:22:44.321Z,48.9
2017-09-04T04:23:45.784Z,48.7
2017-09-04T04:24:47.555Z,48.9
2017-09-04T04:25:49.353Z,48.9
2017-09-04T04:26:50.792Z,48.8
2017-09-04T04:27:52.923Z,49
2017-09-04T04:28:54.719Z,49.1
2017-09-04T04:29:56.515Z,48.8
2017-09-04T04:30:58.309Z,48.9
2017-09-04T04:32:00.140Z,49
2017-09-04T04:33:02.269Z,49
2017-09-04T04:34:04.042Z,49
2017-09-04T04:35:05.836Z,48.9
2017-09-04T04:36:06.942Z,48.9
2017-09-04T04:37:08.048Z,48.9
2017-09-04T04:38:09.822Z,48.9
2017-09-04T04:39:11.950Z,48.9
2017-09-04T04:40:14.078Z,49
2017-09-04T04:41:15.517Z,49
2017-09-04T04:42:17.312Z,48.9
2017-09-04T04:43:19.107Z,48.9
2017-09-04T04:44:21.245Z,49
2017-09-04T04:45:22.704Z,48.7
2017-09-04T04:46:24.474Z,48.9
2017-09-04T04:47:26.267Z,48.9
2017-09-04T04:48:28.043Z,49
2017-09-04T04:49:29.839Z,49
2017-09-04T04:50:31.977Z,49.1
2017-09-04T04:51:34.093Z,49.1
2017-09-04T04:52:35.887Z,48.8
2017-09-04T04:53:37.350Z,49
2017-09-04T04:54:38.809Z,49.1
2017-09-04T04:55:40.611Z,48.9
2017-09-04T04:56:42.411Z,48.8
2017-09-04T04:57:44.207Z,49.2
2017-09-04T04:58:46.007Z,48.8
2017-09-04T04:59:47.801Z,49
2017-09-04T05:00:49.936Z,48.8
2017-09-04T05:01:51.732Z,49
2017-09-04T05:02:53.529Z,49
2017-09-04T05:03:55.659Z,49
2017-09-04T05:04:57.456Z,49
2017-09-04T05:05:59.253Z,48.9
2017-09-04T05:07:01.047Z,49
2017-09-04T05:08:02.846Z,49.2
2017-09-04T05:09:03.954Z,48.8
2017-09-04T05:10:05.427Z,48.9
2017-09-04T05:11:06.869Z,48.9
2017-09-04T05:12:08.641Z,48.9
2017-09-04T05:13:10.434Z,49
2017-09-04T05:14:11.539Z,49.2
2017-09-04T05:15:13.666Z,48.8
2017-09-04T05:16:15.797Z,49.2
2017-09-04T05:17:17.235Z,48.8
2017-09-04T05:18:18.691Z,49
2017-09-04T05:19:20.153Z,48.8
2017-09-04T05:20:20.924Z,49
2017-09-04T05:21:23.050Z,49
2017-09-04T05:22:24.856Z,48.9
2017-09-04T05:23:26.985Z,49
2017-09-04T05:24:29.114Z,49
2017-09-04T05:25:30.906Z,48.8
2017-09-04T05:26:32.370Z,49
2017-09-04T05:27:34.165Z,49.1
2017-09-04T05:28:35.307Z,48.9
2017-09-04T05:29:36.744Z,49.1
2017-09-04T05:30:38.878Z,49.1
2017-09-04T05:31:41.008Z,48.9
2017-09-04T05:32:42.448Z,48.8
2017-09-04T05:33:44.578Z,49
2017-09-04T05:34:46.371Z,48.8
2017-09-04T05:35:47.472Z,48.9
2017-09-04T05:36:49.601Z,48.7
2017-09-04T05:37:51.752Z,48.8
2017-09-04T05:38:53.546Z,48.9
2017-09-04T05:39:55.675Z,48.8
2017-09-04T05:40:57.472Z,49
2017-09-04T05:41:59.599Z,48.8
2017-09-04T05:43:01.394Z,48.9
2017-09-04T05:44:03.527Z,48.8
2017-09-04T05:45:05.322Z,48.8
2017-09-04T05:46:07.118Z,48.9
2017-09-04T05:47:08.579Z,48.8
2017-09-04T05:48:10.473Z,48.8
2017-09-04T05:49:12.246Z,48.9
2017-09-04T05:50:13.708Z,49
2017-09-04T05:51:15.549Z,48.8
2017-09-04T05:52:17.691Z,48.9
2017-09-04T05:53:19.484Z,48.8
2017-09-04T05:54:21.614Z,48.9
2017-09-04T05:55:22.715Z,49
2017-09-04T05:56:24.158Z,49
2017-09-04T05:57:26.285Z,48.9
2017-09-04T05:58:28.416Z,48.9
2017-09-04T05:59:29.874Z,49.1
2017-09-04T06:00:32.001Z,48.9
2017-09-04T06:01:33.127Z,48.9
2017-09-04T06:02:33.897Z,48.9
2017-09-04T06:03:35.004Z,48.9
2017-09-04T06:04:36.111Z,49.1
2017-09-04T06:05:37.901Z,49
2017-09-04T06:06:39.364Z,49.1
2017-09-04T06:07:40.827Z,49.3
2017-09-04T06:08:41.935Z,49
2017-09-04T06:09:43.731Z,49.4
2017-09-04T06:10:45.523Z,48.9
2017-09-04T06:11:46.984Z,49
2017-09-04T06:12:48.780Z,49.3
2017-09-04T06:13:49.884Z,49
2017-09-04T06:14:50.988Z,49
2017-09-04T06:15:52.429Z,49.3
2017-09-04T06:16:54.557Z,49
2017-09-04T06:17:56.347Z,48.9
2017-09-04T06:18:57.450Z,48.9
2017-09-04T06:19:59.224Z,49
2017-09-04T06:21:00.685Z,49.5
2017-09-04T06:22:02.479Z,49.3
2017-09-04T06:23:03.929Z,48.8
2017-09-04T06:24:05.694Z,49
2017-09-04T06:25:07.136Z,48.8
2017-09-04T06:26:08.933Z,49.1
2017-09-04T06:27:10.727Z,49
2017-09-04T06:28:12.187Z,49
2017-09-04T06:29:14.034Z,49
2017-09-04T06:30:15.140Z,48.9
2017-09-04T06:31:16.247Z,48.9
2017-09-04T06:32:17.028Z,49.3
2017-09-04T06:33:19.156Z,49.6
2017-09-04T06:34:21.289Z,49.4
2017-09-04T06:35:23.082Z,49.1
2017-09-04T06:36:24.858Z,49.4
2017-09-04T06:37:26.295Z,49
2017-09-04T06:38:28.089Z,49.8
2017-09-04T06:39:29.219Z,49.8
2017-09-04T06:40:30.662Z,50.1
2017-09-04T06:41:32.124Z,49.7
2017-09-04T06:42:34.262Z,49.7
2017-09-04T06:43:36.391Z,49.7
2017-09-04T06:44:38.167Z,49.9
2017-09-04T06:45:39.946Z,49.8
2017-09-04T06:46:42.077Z,49.9
2017-09-04T06:47:44.213Z,50
2017-09-04T06:48:46.349Z,50.1
2017-09-04T06:49:48.122Z,49.9
2017-09-04T06:50:49.231Z,50
2017-09-04T06:51:51.026Z,49.8
2017-09-04T06:52:52.800Z,49.8
2017-09-04T06:53:54.598Z,49.8
2017-09-04T06:54:56.062Z,49.8
2017-09-04T06:55:57.858Z,50.1
2017-09-04T06:56:59.655Z,49.8
2017-09-04T06:58:01.784Z,49.5
2017-09-04T06:59:03.912Z,49.7
2017-09-04T07:00:05.758Z,49.7
2017-09-04T07:01:07.197Z,49.3
2017-09-04T07:02:08.660Z,49.5
2017-09-04T07:03:09.777Z,49.4
2017-09-04T07:04:11.552Z,49.6
2017-09-04T07:05:13.346Z,49.7
2017-09-04T07:06:15.144Z,49.4
2017-09-04T07:07:16.609Z,49.5
2017-09-04T07:08:18.387Z,49.4
2017-09-04T07:09:20.161Z,49.4
2017-09-04T07:10:22.290Z,49.2
2017-09-04T07:11:23.749Z,49.3
2017-09-04T07:12:25.547Z,49.5
2017-09-04T07:13:27.015Z,49.3
2017-09-04T07:14:29.147Z,49.3
2017-09-04T07:15:30.946Z,49.4
2017-09-04T07:16:33.080Z,49.4
2017-09-04T07:17:34.874Z,49.2
2017-09-04T07:18:36.685Z,49.7
2017-09-04T07:19:38.816Z,49
2017-09-04T07:20:40.715Z,49.3
2017-09-04T07:21:41.485Z,49.3
2017-09-04T07:22:43.619Z,49.2
2017-09-04T07:23:45.061Z,49.3
2017-09-04T07:24:46.861Z,49.2
2017-09-04T07:25:48.657Z,48.9
2017-09-04T07:26:50.794Z,49.1
2017-09-04T07:27:52.594Z,49.1
2017-09-04T07:28:54.034Z,48.7
2017-09-04T07:29:55.494Z,49.2
2017-09-04T07:30:56.622Z,49.3
2017-09-04T07:31:58.062Z,49.4
2017-09-04T07:33:00.189Z,49.1
2017-09-04T07:34:01.985Z,49.2
2017-09-04T07:35:03.444Z,49.3
2017-09-04T07:36:05.243Z,49.2
2017-09-04T07:37:06.350Z,49.3
2017-09-04T07:38:08.123Z,48.9
2017-09-04T07:39:09.588Z,48.8
2017-09-04T07:40:11.027Z,49.2
2017-09-04T07:41:12.823Z,48.8
2017-09-04T07:42:14.624Z,48.7
2017-09-04T07:43:16.415Z,48.9
2017-09-04T07:44:18.225Z,48.8
2017-09-04T07:45:20.361Z,49.1
2017-09-04T07:46:22.486Z,49.5
2017-09-04T07:47:24.620Z,49.4
2017-09-04T07:48:26.753Z,49.1
2017-09-04T07:49:28.889Z,49.2
2017-09-04T07:50:31.020Z,49.1
2017-09-04T07:51:32.819Z,48.7
2017-09-04T07:52:33.946Z,49.4
2017-09-04T07:53:35.386Z,49.2
2017-09-04T07:54:37.517Z,49.2
2017-09-04T07:55:39.311Z,49.1
2017-09-04T07:56:41.086Z,48.7
2017-09-04T07:57:42.885Z,48.9
2017-09-04T07:58:44.329Z,49.2
2017-09-04T07:59:46.125Z,49.3
2017-09-04T08:00:47.927Z,49.1
2017-09-04T08:01:49.720Z,49.4
2017-09-04T08:02:51.516Z,49
2017-09-04T08:03:53.646Z,49.1
2017-09-04T08:04:55.778Z,49.4
2017-09-04T08:05:57.285Z,49.3
2017-09-04T08:06:59.096Z,48.8
2017-09-04T08:08:00.894Z,48.9
2017-09-04T08:09:02.694Z,49.3
2017-09-04T08:10:04.134Z,49.4
2017-09-04T08:11:05.593Z,48.8
2017-09-04T08:12:06.697Z,48.8
2017-09-04T08:13:08.476Z,49
2017-09-04T08:14:09.577Z,48.9
2017-09-04T08:15:11.351Z,49.2
2017-09-04T08:16:13.148Z,48.8
2017-09-04T08:17:15.283Z,49.1
2017-09-04T08:18:17.081Z,49
2017-09-04T08:19:18.542Z,48.9
2017-09-04T08:20:20.007Z,48.9
2017-09-04T08:21:21.785Z,49.2
2017-09-04T08:22:23.225Z,48.9
2017-09-04T08:23:24.340Z,48.8
2017-09-04T08:24:26.139Z,48.8
2017-09-04T08:25:27.579Z,48.9
2017-09-04T08:26:29.019Z,48.8
2017-09-04T08:27:31.192Z,49.2
2017-09-04T08:28:32.658Z,48.9
2017-09-04T08:29:34.456Z,48.9
2017-09-04T08:30:36.036Z,49
2017-09-04T08:31:38.283Z,49
2017-09-04T08:32:40.103Z,49.1
2017-09-04T08:33:41.584Z,49
2017-09-04T08:34:43.479Z,49.2
2017-09-04T08:35:45.609Z,48.9
2017-09-04T08:36:47.409Z,48.9
2017-09-04T08:37:49.205Z,48.8
2017-09-04T08:38:51.357Z,48.9
2017-09-04T08:39:52.803Z,49.4
2017-09-04T08:40:54.935Z,48.8
2017-09-04T08:41:56.404Z,48.9
2017-09-04T08:42:57.845Z,49.1
2017-09-04T08:43:59.293Z,49.4
2017-09-04T08:45:01.429Z,49
2017-09-04T08:46:03.241Z,48.8
2017-09-04T08:47:05.016Z,49.1
2017-09-04T08:48:06.816Z,48.9
2017-09-04T08:49:07.977Z,48.9
2017-09-04T08:50:09.778Z,48.9
2017-09-04T08:51:11.277Z,49.2
2017-09-04T08:52:12.418Z,48.8
2017-09-04T08:53:14.266Z,48.8
2017-09-04T08:54:15.727Z,48.9
2017-09-04T08:55:17.526Z,48.9
2017-09-04T08:56:18.969Z,49
2017-09-04T08:57:20.411Z,48.8
2017-09-04T08:58:21.859Z,49.1
2017-09-04T08:59:23.990Z,48.9
2017-09-04T09:00:25.791Z,49
2017-09-04T09:01:27.592Z,48.8
2017-09-04T09:02:29.062Z,49
2017-09-04T09:03:30.526Z,49
2017-09-04T09:04:32.664Z,49
2017-09-04T09:05:34.462Z,48.9
2017-09-04T09:06:36.594Z,48.7
2017-09-04T09:07:38.741Z,49
2017-09-04T09:08:40.192Z,48.7
2017-09-04T09:09:41.993Z,49
2017-09-04T09:10:43.462Z,48.9
2017-09-04T09:11:45.237Z,48.9
2017-09-04T09:12:46.700Z,48.6
2017-09-04T09:13:48.201Z,48.7
2017-09-04T09:14:49.667Z,48.6
2017-09-04T09:15:51.465Z,48.6
2017-09-04T09:16:53.262Z,48.8
2017-09-04T09:17:54.728Z,48.7
2017-09-04T09:18:56.862Z,48.9
2017-09-04T09:19:58.663Z,48.9
2017-09-04T09:21:00.102Z,48.8
2017-09-04T09:22:01.908Z,48.9
2017-09-04T09:23:03.703Z,49
2017-09-04T09:24:05.837Z,49
2017-09-04T09:25:07.611Z,48.8
2017-09-04T09:26:09.410Z,48.9
2017-09-04T09:27:11.543Z,49
2017-09-04T09:28:13.676Z,49
2017-09-04T09:29:15.457Z,49
2017-09-04T09:30:17.589Z,49
2017-09-04T09:31:19.369Z,49
2017-09-04T09:32:20.478Z,49
2017-09-04T09:33:22.279Z,49
2017-09-04T09:34:23.721Z,48.9
2017-09-04T09:35:25.914Z,49
2017-09-04T09:36:28.049Z,49
2017-09-04T09:37:29.867Z,49
2017-09-04T09:38:31.665Z,49.1
2017-09-04T09:39:33.442Z,49
2017-09-04T09:40:35.577Z,49
2017-09-04T09:41:37.039Z,48.9
2017-09-04T09:42:38.502Z,48.9
2017-09-04T09:43:39.991Z,48.9
2017-09-04T09:44:41.453Z,49
2017-09-04T09:45:42.559Z,49
2017-09-04T09:46:44.360Z,49.1
2017-09-04T09:47:46.165Z,49
2017-09-04T09:48:46.943Z,48.9
2017-09-04T09:49:48.380Z,49
2017-09-04T09:50:49.843Z,48.9
2017-09-04T09:51:51.653Z,49
2017-09-04T09:52:53.452Z,49.1
2017-09-04T09:53:54.905Z,49.1
2017-09-04T09:54:56.366Z,49
2017-09-04T09:55:58.165Z,48.9
2017-09-04T09:56:59.604Z,49
2017-09-04T09:58:01.739Z,49
2017-09-04T09:59:03.592Z,49
2017-09-04T10:00:05.386Z,48.9
2017-09-04T10:01:07.200Z,48.9
2017-09-04T10:02:08.321Z,48.6
2017-09-04T10:03:10.457Z,49
2017-09-04T10:04:11.892Z,49
2017-09-04T10:05:13.697Z,49
2017-09-04T10:06:15.474Z,49
2017-09-04T10:07:17.610Z,48.8
2017-09-04T10:08:19.391Z,48.7
2017-09-04T10:09:21.189Z,48.6
2017-09-04T10:10:23.433Z,48.6
2017-09-04T10:11:24.877Z,48.3
2017-09-04T10:12:26.716Z,48.2
2017-09-04T10:13:28.514Z,48.3
2017-09-04T10:14:29.976Z,48.3
2017-09-04T10:15:31.777Z,48.2
2017-09-04T10:16:33.576Z,48.7
2017-09-04T10:17:35.042Z,48.2
2017-09-04T10:18:36.840Z,48.7
2017-09-04T10:19:38.620Z,48.2
2017-09-04T10:20:40.079Z,48.3
2017-09-04T10:21:41.855Z,48.3
2017-09-04T10:22:43.632Z,48.2
2017-09-04T10:23:45.768Z,48.6
2017-09-04T10:24:47.908Z,48.9
2017-09-04T10:25:50.037Z,49
2017-09-04T10:26:51.839Z,49
2017-09-04T10:27:53.618Z,48.6
2017-09-04T10:28:55.065Z,48.6
2017-09-04T10:29:57.199Z,48.6
2017-09-04T10:30:58.642Z,48.5
2017-09-04T10:32:00.101Z,48.6
2017-09-04T10:33:01.548Z,48.6
2017-09-04T10:34:03.352Z,48.6
2017-09-04T10:35:05.233Z,48.9
2017-09-04T10:36:07.384Z,48.7
2017-09-04T10:37:09.516Z,48.6
2017-09-04T10:38:11.653Z,48.7
2017-09-04T10:39:13.434Z,48.7
2017-09-04T10:40:15.567Z,49
2017-09-04T10:41:17.030Z,48.7
2017-09-04T10:42:19.163Z,48.6
2017-09-04T10:43:20.629Z,48.6
2017-09-04T10:44:22.429Z,48.8
2017-09-04T10:45:24.560Z,48.6
2017-09-04T10:46:26.356Z,49
2017-09-04T10:47:27.823Z,48.7
2017-09-04T10:48:29.956Z,49
2017-09-04T10:49:31.757Z,48.7
2017-09-04T10:50:33.553Z,48.1
2017-09-04T10:51:35.353Z,48.2
2017-09-04T10:52:37.147Z,48.2
2017-09-04T10:53:39.283Z,48.4
2017-09-04T10:54:40.747Z,48.3
2017-09-04T10:55:42.191Z,48.6
2017-09-04T10:56:42.963Z,48.2
2017-09-04T10:57:45.101Z,48.2
2017-09-04T10:58:47.230Z,48.6
2017-09-04T10:59:49.363Z,48.3
2017-09-04T11:00:51.160Z,48.2
2017-09-04T11:01:52.961Z,48.1
2017-09-04T11:02:55.095Z,48.7
2017-09-04T11:03:56.561Z,48.5
2017-09-04T11:04:58.022Z,48.4
2017-09-04T11:06:00.153Z,48.3
2017-09-04T11:07:01.949Z,48.2
2017-09-04T11:08:03.413Z,48.2
2017-09-04T11:09:05.544Z,48.4
2017-09-04T11:10:07.343Z,48.1
2017-09-04T11:11:09.475Z,48.7
2017-09-04T11:12:11.607Z,48.3
2017-09-04T11:13:13.739Z,48.5
2017-09-04T11:14:15.518Z,48.9
2017-09-04T11:15:17.650Z,48.6
2017-09-04T11:16:19.118Z,48.4
2017-09-04T11:17:20.917Z,48.5
2017-09-04T11:18:22.381Z,48.6
2017-09-04T11:19:23.508Z,48.7
2017-09-04T11:20:24.950Z,48.6
2017-09-04T11:21:26.393Z,48.7
2017-09-04T11:22:28.196Z,49.1
2017-09-04T11:23:29.644Z,49
2017-09-04T11:24:31.777Z,48.8
2017-09-04T11:25:33.579Z,48.7
2017-09-04T11:26:35.354Z,48.7
2017-09-04T11:27:37.492Z,49
2017-09-04T11:28:39.289Z,48.7
2017-09-04T11:29:41.084Z,48.6
2017-09-04T11:30:42.876Z,48.7
2017-09-04T11:31:44.647Z,48.6
2017-09-04T11:32:46.107Z,48.7
2017-09-04T11:33:48.234Z,48.8
2017-09-04T11:34:49.674Z,48.8
2017-09-04T11:35:51.116Z,48.7
2017-09-04T11:36:52.580Z,48.9
2017-09-04T11:37:54.040Z,48.7
2017-09-04T11:38:56.169Z,48.6
2017-09-04T11:39:58.300Z,49
2017-09-04T11:40:59.738Z,48.6
2017-09-04T11:42:01.536Z,48.7
2017-09-04T11:43:02.977Z,48.7
2017-09-04T11:44:04.774Z,48.6
2017-09-04T11:45:06.579Z,48.9
2017-09-04T11:46:08.042Z,48.7
2017-09-04T11:47:09.837Z,49.1
2017-09-04T11:48:11.969Z,48.9
2017-09-04T11:49:14.100Z,48.9
2017-09-04T11:50:15.539Z,48.9
2017-09-04T11:51:17.337Z,49
2017-09-04T11:52:19.130Z,49.1
2017-09-04T11:53:21.263Z,49.1
2017-09-04T11:54:22.704Z,48.8
2017-09-04T11:55:24.150Z,49.1
2017-09-04T11:56:25.946Z,48.7
2017-09-04T11:57:27.722Z,48.6
2017-09-04T11:58:29.183Z,48.7
2017-09-04T11:59:30.653Z,48.8
2017-09-04T12:00:31.750Z,48.6
2017-09-04T12:01:33.235Z,48.9
2017-09-04T12:02:34.727Z,48.9
2017-09-04T12:03:36.185Z,48.9
2017-09-04T12:04:38.319Z,48.7
2017-09-04T12:05:40.093Z,48.9
2017-09-04T12:06:41.203Z,49
2017-09-04T12:07:42.998Z,49
2017-09-04T12:08:44.774Z,49.4
2017-09-04T12:09:45.907Z,49
2017-09-04T12:10:47.371Z,49.1
2017-09-04T12:11:48.810Z,49.2
2017-09-04T12:12:50.585Z,48.9
2017-09-04T12:13:52.384Z,49
2017-09-04T12:14:54.179Z,49
2017-09-04T12:15:55.648Z,48.9
2017-09-04T12:16:57.441Z,48.9
2017-09-04T12:17:59.239Z,48.9
2017-09-04T12:19:01.375Z,49.2
2017-09-04T12:20:02.818Z,49
2017-09-04T12:21:04.258Z,48.9
2017-09-04T12:22:05.721Z,48.9
2017-09-04T12:23:07.163Z,48.8
2017-09-04T12:24:08.943Z,48.9
2017-09-04T12:25:11.071Z,49
2017-09-04T12:26:12.872Z,49
2017-09-04T12:27:13.978Z,48.9
2017-09-04T12:28:15.874Z,49.1
2017-09-04T12:29:17.672Z,49.1
2017-09-04T12:30:19.470Z,48.9
2017-09-04T12:31:21.621Z,48.9
2017-09-04T12:32:23.738Z,49.1
2017-09-04T12:33:25.203Z,49
2017-09-04T12:34:27.026Z,49.1
2017-09-04T12:35:28.825Z,48.9
2017-09-04T12:36:30.265Z,48.9
2017-09-04T12:37:31.701Z,49.2
2017-09-04T12:38:33.499Z,49.6
2017-09-04T12:39:35.641Z,48.9
2017-09-04T12:40:37.767Z,49.4
2017-09-04T12:41:39.231Z,49.1
2017-09-04T12:42:41.028Z,49.5
2017-09-04T12:43:42.824Z,49
2017-09-04T12:44:44.603Z,49
2017-09-04T12:45:46.398Z,49
2017-09-04T12:46:48.193Z,49.4
2017-09-04T12:47:49.297Z,49
2017-09-04T12:48:51.481Z,49.5
2017-09-04T12:49:53.612Z,49
2017-09-04T12:50:55.408Z,49.5
2017-09-04T12:51:56.176Z,49.2
2017-09-04T12:52:58.313Z,49.5
2017-09-04T12:53:59.873Z,49.1
2017-09-04T12:55:01.673Z,49.4
2017-09-04T12:56:03.126Z,49.4
2017-09-04T12:57:04.939Z,49
2017-09-04T12:58:06.380Z,49.4
2017-09-04T12:59:08.180Z,49
2017-09-04T13:00:09.306Z,49.2
2017-09-04T13:01:11.439Z,49
2017-09-04T13:02:12.541Z,49.1
2017-09-04T13:03:14.336Z,49.1
2017-09-04T13:04:15.847Z,48.9
2017-09-04T13:05:17.309Z,49.1
2017-09-04T13:06:19.087Z,49.1
2017-09-04T13:07:20.887Z,49.1
2017-09-04T13:08:22.350Z,49
2017-09-04T13:09:24.478Z,49.1
2017-09-04T13:10:26.611Z,49.1
2017-09-04T13:11:28.407Z,48.9
2017-09-04T13:12:30.231Z,49.6
2017-09-04T13:13:32.027Z,49.2
2017-09-04T13:14:33.829Z,49
2017-09-04T13:15:35.607Z,49
2017-09-04T13:16:37.050Z,49.3
2017-09-04T13:17:38.490Z,49
2017-09-04T13:18:40.286Z,49.2
2017-09-04T13:19:42.088Z,49.2
2017-09-04T13:20:43.534Z,49.1
2017-09-04T13:21:45.333Z,49.1
2017-09-04T13:22:46.796Z,48.9
2017-09-04T13:23:48.591Z,49
2017-09-04T13:24:50.387Z,49.1
2017-09-04T13:25:52.520Z,49
2017-09-04T13:26:54.317Z,49.1
2017-09-04T13:27:55.759Z,48.9
2017-09-04T13:28:57.894Z,49
2017-09-04T13:30:00.026Z,49.1
2017-09-04T13:31:01.824Z,49.1
2017-09-04T13:32:03.622Z,49.1
2017-09-04T13:33:04.731Z,49
2017-09-04T13:34:06.526Z,49.2
2017-09-04T13:35:07.992Z,49.1
2017-09-04T13:36:09.458Z,49
2017-09-04T13:37:10.923Z,49
2017-09-04T13:38:12.363Z,48.7
2017-09-04T13:39:14.163Z,48.8
2017-09-04T13:40:15.626Z,48.9
2017-09-04T13:41:17.406Z,48.9
2017-09-04T13:42:18.863Z,49.1
2017-09-04T13:43:19.977Z,48.6
2017-09-04T13:44:21.443Z,48.8
2017-09-04T13:45:22.896Z,49.1
2017-09-04T13:46:24.694Z,48.6
2017-09-04T13:47:26.825Z,48.6
2017-09-04T13:48:28.623Z,48.6
2017-09-04T13:49:30.065Z,49
2017-09-04T13:50:31.862Z,48.7
2017-09-04T13:51:33.661Z,49
2017-09-04T13:52:35.795Z,48.7
2017-09-04T13:53:37.261Z,48.9